Time;durP1;ratioP1;P1;durP2;ratioP2;P2;SDS_P1;SDS_P2;PMS_P1;PMS_P2;Temp;Humidity;BMP_temperature;BMP_pressure;BME280_temperature;BME280_humidity;BME280_pressure;Samples;Min_cycle;Max_cycle;Signal;HPM_P1;HPM_P2
2023/12/25 00:01:05;;;;;;;2.40;0.47;;;9.60;99.90;;;9.16;100.00;96901.00;5009357;28;20112;-37
2023/12/25 00:03:31;;;;;;;1.42;0.60;;;9.70;99.90;;;9.13;100.00;96916.88;5017970;28;20036;-37
2023/12/25 00:05:57;;;;;;;1.05;0.57;;;9.70;99.90;;;9.12;100.00;96895.00;5004751;28;20349;-37
2023/12/25 00:08:23;;;;;;;1.02;0.60;;;9.70;99.90;;;9.24;100.00;96900.69;5007602;28;20040;-37
2023/12/25 00:10:48;;;;;;;1.23;0.47;;;9.80;99.90;;;9.22;100.00;96905.16;5019053;28;20022;-37
2023/12/25 00:13:14;;;;;;;2.05;0.68;;;9.80;99.90;;;9.29;100.00;96898.72;5013649;28;21279;-37
2023/12/25 00:15:40;;;;;;;1.02;0.52;;;9.80;99.90;;;9.25;100.00;96887.47;5011168;28;20644;-37
2023/12/25 00:18:05;;;;;;;1.35;0.65;;;9.80;99.90;;;9.26;100.00;96890.94;5018618;28;20077;-36
2023/12/25 00:20:31;;;;;;;1.08;0.50;;;9.80;99.90;;;9.20;100.00;96876.28;5017660;28;20430;-37
2023/12/25 00:22:57;;;;;;;0.40;0.40;;;9.80;99.90;;;9.26;100.00;96889.19;5012792;28;20411;-36
2023/12/25 00:25:22;;;;;;;1.27;0.80;;;9.80;99.90;;;9.24;100.00;96887.53;5019641;28;20030;-36
2023/12/25 00:27:48;;;;;;;1.20;0.57;;;9.80;99.90;;;9.22;100.00;96899.88;5018120;28;20033;-36
2023/12/25 00:30:14;;;;;;;1.70;0.50;;;9.80;99.90;;;9.28;100.00;96891.78;5017056;28;20037;-37
2023/12/25 00:32:40;;;;;;;0.80;0.50;;;9.80;99.90;;;9.25;100.00;96900.63;5007334;28;20048;-37
2023/12/25 00:35:06;;;;;;;0.88;0.47;;;9.80;99.90;;;9.28;100.00;96900.50;5014308;28;20033;-37
2023/12/25 00:37:31;;;;;;;1.35;0.47;;;9.80;99.90;;;9.26;100.00;96904.09;5013635;28;20510;-37
2023/12/25 00:39:57;;;;;;;1.90;0.60;;;9.80;99.90;;;9.26;100.00;96898.84;5017979;28;20462;-37
2023/12/25 00:42:23;;;;;;;1.65;0.75;;;9.80;99.90;;;9.22;100.00;96908.63;5029590;28;20037;-37
2023/12/25 00:44:49;;;;;;;1.30;0.60;;;9.80;99.90;;;9.10;100.00;96888.09;5017799;28;20025;-37
2023/12/25 00:47:15;;;;;;;4.22;0.60;;;9.80;99.90;;;9.21;100.00;96912.19;5016401;28;20516;-37
2023/12/25 00:49:40;;;;;;;1.27;0.57;;;9.80;99.90;;;9.20;100.00;96912.25;5016830;28;20312;-37
2023/12/25 00:52:06;;;;;;;4.97;0.50;;;9.80;99.90;;;9.20;100.00;96925.41;5010826;28;21012;-37
2023/12/25 00:54:32;;;;;;;1.88;0.60;;;9.70;99.90;;;8.96;100.00;96886.84;5009949;28;20324;-38
2023/12/25 00:56:58;;;;;;;1.77;0.80;;;9.70;99.90;;;9.11;100.00;96913.47;5015873;28;20029;-37
2023/12/25 00:59:24;;;;;;;1.13;0.57;;;9.70;99.90;;;9.18;100.00;96912.31;5019382;28;20668;-37
2023/12/25 01:01:50;;;;;;;1.23;0.70;;;9.70;99.90;;;9.10;100.00;96907.34;5020119;28;20033;-37
2023/12/25 01:04:16;;;;;;;0.70;0.63;;;9.70;99.90;;;9.05;100.00;96901.41;5010543;28;20029;-37
2023/12/25 01:06:42;;;;;;;2.30;0.77;;;9.60;99.90;;;9.11;100.00;96931.88;5015873;28;20067;-37
2023/12/25 01:09:07;;;;;;;1.20;0.70;;;9.60;99.90;;;9.16;100.00;96911.53;5017437;28;20032;-38
2023/12/25 01:11:42;;;;;;;0.85;0.50;;;9.70;99.90;;;9.18;100.00;96926.31;5016163;28;20183;-38
2023/12/25 01:14:09;;;;;;;1.02;0.60;;;9.70;99.90;;;9.16;100.00;96916.78;5017004;28;20037;-37
2023/12/25 01:16:35;;;;;;;1.05;0.47;;;9.70;99.90;;;9.18;100.00;96912.31;5016878;28;20761;-37
2023/12/25 01:19:01;;;;;;;0.95;0.50;;;9.70;99.90;;;9.15;100.00;96910.66;5017832;28;20037;-37
2023/12/25 01:21:27;;;;;;;0.90;0.50;;;9.70;99.90;;;9.10;100.00;96910.00;5014948;28;20040;-37
2023/12/25 01:23:53;;;;;;;2.70;0.52;;;9.60;99.90;;;9.04;100.00;96902.31;5016295;28;21088;-37
2023/12/25 01:26:19;;;;;;;3.03;0.70;;;9.60;99.90;;;9.01;100.00;96904.22;5012936;28;20045;-37
2023/12/25 01:28:45;;;;;;;3.10;0.60;;;9.50;99.90;;;8.95;100.00;96889.53;5014988;28;20058;-38
2023/12/25 01:31:11;;;;;;;0.63;0.50;;;9.50;99.90;;;8.79;100.00;96889.25;5013317;28;20521;-38
2023/12/25 01:33:36;;;;;;;0.82;0.50;;;9.40;99.90;;;8.78;100.00;96890.19;5014136;28;20493;-37
2023/12/25 01:36:03;;;;;;;1.63;0.60;;;9.30;99.90;;;8.77;100.00;96891.97;5017406;28;20041;-39
2023/12/25 01:38:28;;;;;;;0.47;0.38;;;9.30;99.90;;;8.76;100.00;96884.97;5013193;28;20037;-38
2023/12/25 01:40:54;;;;;;;2.42;0.50;;;9.20;99.90;;;8.70;100.00;96868.56;5007454;28;20041;-37
2023/12/25 01:43:20;;;;;;;1.13;0.25;;;9.20;99.90;;;8.71;100.00;96888.69;5015551;28;20091;-37
2023/12/25 01:45:45;;;;;;;2.20;0.80;;;9.20;99.90;;;8.62;100.00;96889.06;5011678;28;20120;-38
2023/12/25 01:48:12;;;;;;;1.15;0.50;;;9.10;99.90;;;8.45;100.00;96880.00;5017791;28;20071;-37
2023/12/25 01:50:39;;;;;;;1.42;0.50;;;9.10;99.90;;;8.56;100.00;96898.88;5017473;28;20041;-38
2023/12/25 01:53:05;;;;;;;0.90;0.60;;;9.00;99.90;;;8.54;100.00;96890.19;5012487;28;20135;-37
2023/12/25 01:55:31;;;;;;;1.95;0.57;;;9.00;99.90;;;8.50;100.00;96869.31;5019829;28;20029;-37
2023/12/25 01:57:57;;;;;;;0.75;0.43;;;9.00;99.90;;;8.50;100.00;96885.94;5021985;28;20033;-37
2023/12/25 02:00:22;;;;;;;1.17;0.45;;;9.00;99.90;;;8.39;100.00;96902.06;5019489;28;20698;-37
2023/12/25 02:02:48;;;;;;;1.08;0.50;;;8.90;99.90;;;8.36;100.00;96893.44;5015126;28;20069;-37
2023/12/25 02:05:15;;;;;;;1.65;0.50;;;8.90;99.90;;;8.29;100.00;96884.94;5019794;28;20041;-37
2023/12/25 02:07:43;;;;;;;2.50;0.47;;;8.90;99.90;;;8.22;100.00;96889.56;5016218;28;20045;-37
2023/12/25 02:10:09;;;;;;;1.48;0.50;;;8.80;99.90;;;8.43;100.00;96902.84;5015125;28;20076;-37
2023/12/25 02:12:36;;;;;;;1.40;0.63;;;8.80;99.90;;;8.32;100.00;96905.81;5014962;28;20498;-39
2023/12/25 02:15:05;;;;;;;1.95;0.50;;;8.80;99.90;;;8.35;100.00;96905.72;5011173;28;20041;-38
2023/12/25 02:17:32;;;;;;;0.77;0.50;;;8.80;99.90;;;8.38;100.00;96910.00;5019410;28;20035;-38
2023/12/25 02:19:59;;;;;;;1.60;0.60;;;8.80;99.90;;;8.32;100.00;96913.72;5017574;28;20040;-37
2023/12/25 02:22:25;;;;;;;1.58;0.50;;;8.80;99.90;;;8.26;100.00;96908.69;5004365;28;20034;-38
2023/12/25 02:25:07;;;;;;;0.82;0.55;;;8.80;99.90;;;8.31;100.00;96913.75;5018897;28;20508;-37
2023/12/25 02:27:33;;;;;;;2.15;0.70;;;8.80;99.90;;;8.29;100.00;96915.59;5019281;28;20124;-37
2023/12/25 02:29:59;;;;;;;2.70;0.60;;;8.80;99.90;;;8.27;100.00;96913.00;5015215;28;20038;-37
2023/12/25 02:32:24;;;;;;;0.70;0.50;;;8.80;99.90;;;8.43;100.00;96920.38;5010060;28;20513;-37
2023/12/25 02:34:50;;;;;;;1.77;0.60;;;8.90;99.90;;;8.38;100.00;96910.88;5012210;28;20026;-39
2023/12/25 02:37:16;;;;;;;1.30;0.50;;;8.90;99.90;;;8.41;100.00;96916.00;5009498;28;20053;-37
2023/12/25 02:39:42;;;;;;;0.90;0.50;;;8.90;99.90;;;8.43;100.00;96912.50;5012770;28;20032;-37
2023/12/25 02:42:07;;;;;;;1.55;0.50;;;8.90;99.90;;;8.46;99.90;96921.13;5016263;28;20111;-37
2023/12/25 02:44:33;;;;;;;0.98;0.60;;;9.00;99.90;;;8.52;97.60;96905.13;5018847;28;20036;-38
2023/12/25 02:46:59;;;;;;;0.57;0.50;;;9.00;99.90;;;8.53;96.66;96906.88;5015161;28;20041;-38
2023/12/25 02:49:24;;;;;;;0.73;0.52;;;9.00;99.90;;;8.52;99.30;96899.03;5012350;28;20437;-39
2023/12/25 02:51:50;;;;;;;0.47;0.38;;;9.10;99.90;;;8.54;96.32;96900.72;5010376;28;20029;-39
2023/12/25 02:54:16;;;;;;;3.47;0.68;;;9.10;99.90;;;8.58;95.86;96896.19;5017541;28;20124;-38
2023/12/25 02:56:41;;;;;;;0.50;0.50;;;9.10;99.90;;;8.63;94.07;96893.38;5015424;28;20061;-39
2023/12/25 02:59:07;;;;;;;1.05;0.50;;;9.10;99.90;;;8.65;95.55;96894.16;5011954;28;20025;-37
2023/12/25 03:01:33;;;;;;;0.80;0.60;;;9.20;99.90;;;8.71;93.09;96889.56;5017511;28;20040;-38
2023/12/25 03:03:58;;;;;;;0.43;0.40;;;9.20;99.90;;;8.70;92.46;96881.72;5014838;28;20502;-37
2023/12/25 03:06:24;;;;;;;1.92;0.55;;;9.20;99.90;;;8.59;92.87;96893.47;5029579;28;20052;-37
2023/12/25 03:08:50;;;;;;;1.52;0.50;;;9.20;99.90;;;8.57;92.28;96878.69;5018813;28;20060;-39
2023/12/25 03:11:15;;;;;;;0.65;0.40;;;9.10;99.90;;;8.64;89.38;96884.59;5015180;28;20060;-40
2023/12/25 03:13:41;;;;;;;1.13;0.50;;;9.10;99.90;;;8.37;94.74;96866.25;5018068;28;20398;-38
2023/12/25 03:16:07;;;;;;;1.42;0.60;;;9.00;99.90;;;8.47;93.70;96865.06;5006347;28;20156;-38
2023/12/25 03:18:33;;;;;;;0.70;0.50;;;8.90;99.90;;;8.35;92.02;96849.72;5011951;28;20060;-38
2023/12/25 03:20:59;;;;;;;1.75;0.47;;;8.90;99.90;;;8.28;93.81;96861.34;5004448;28;20030;-36
2023/12/25 03:23:25;;;;;;;1.92;0.60;;;8.80;99.90;;;8.16;95.03;96874.00;5000541;28;20150;-38
2023/12/25 03:25:51;;;;;;;2.13;0.45;;;8.70;99.90;;;8.13;94.53;96866.25;5008831;28;21473;-38
2023/12/25 03:28:17;;;;;;;1.85;0.52;;;8.70;99.90;;;8.13;95.18;96879.38;5012159;28;20515;-37
2023/12/25 03:30:42;;;;;;;0.43;0.43;;;8.60;99.90;;;8.20;93.87;96870.38;5015097;28;20387;-37
2023/12/25 03:33:08;;;;;;;0.45;0.40;;;8.70;99.90;;;8.20;92.15;96873.00;5004433;28;20056;-39
2023/12/25 03:35:34;;;;;;;0.82;0.57;;;8.60;99.90;;;8.17;91.42;96883.59;5017777;28;20438;-37
2023/12/25 03:38:00;;;;;;;3.13;0.40;;;8.60;99.90;;;8.17;90.32;96883.59;5012343;28;20065;-38
2023/12/25 03:40:26;;;;;;;2.25;0.40;;;8.60;99.90;;;8.15;91.93;96863.56;5011225;28;20041;-38
2023/12/25 03:42:54;;;;;;;2.15;0.50;;;8.60;99.90;;;8.08;96.19;96870.81;5012592;28;20121;-37
2023/12/25 03:45:20;;;;;;;0.73;0.52;;;8.60;99.90;;;8.14;90.88;96875.81;5016027;28;20029;-37
2023/12/25 03:47:46;;;;;;;0.63;0.50;;;8.60;99.90;;;8.22;90.77;96873.78;5010094;28;20426;-37
2023/12/25 03:50:11;;;;;;;0.52;0.52;;;8.60;99.90;;;8.21;91.15;96874.69;4989586;28;20644;-37
2023/12/25 03:52:37;;;;;;;1.40;0.63;;;8.70;99.90;;;8.28;88.44;96871.84;5011601;28;20038;-38
2023/12/25 03:55:03;;;;;;;1.33;0.43;;;8.70;99.90;;;8.32;89.09;96874.31;5013475;28;20033;-37
2023/12/25 03:57:29;;;;;;;0.65;0.50;;;8.80;99.90;;;8.28;89.83;96879.75;5014866;28;20061;-37
2023/12/25 03:59:55;;;;;;;1.98;0.70;;;8.70;99.90;;;8.33;89.74;96875.19;5014113;28;20033;-36
2023/12/25 04:02:20;;;;;;;0.73;0.50;;;8.80;99.90;;;8.35;88.20;96884.72;5012662;28;20029;-36
2023/12/25 04:04:47;;;;;;;0.95;0.60;;;8.80;99.90;;;8.34;93.43;96887.38;5009909;28;20032;-36
2023/12/25 04:07:14;;;;;;;0.82;0.40;;;8.80;99.90;;;8.26;89.30;96881.56;5013910;28;20052;-37
2023/12/25 04:09:41;;;;;;;0.95;0.50;;;8.80;99.90;;;8.25;90.69;96888.56;5012374;28;20037;-36
2023/12/25 04:12:07;;;;;;;0.75;0.40;;;8.70;99.90;;;8.20;89.95;96882.63;5016308;28;20504;-37
2023/12/25 04:14:40;;;;;;;1.00;0.50;;;8.70;99.90;;;8.19;89.21;96894.91;5018546;28;20040;-37
2023/12/25 04:17:05;;;;;;;2.85;0.60;;;8.70;99.90;;;8.21;88.00;96892.22;5018361;28;20159;-37
2023/12/25 04:19:32;;;;;;;2.60;0.63;;;8.70;99.90;;;8.20;89.17;96891.38;5012397;28;20410;-37
2023/12/25 04:21:58;;;;;;;1.65;0.50;;;8.70;99.90;;;8.17;89.56;96875.72;5009949;28;20033;-37
2023/12/25 04:24:24;;;;;;;1.52;0.55;;;8.70;99.90;;;8.18;88.26;96884.44;5013128;28;20117;-37
2023/12/25 04:26:50;;;;;;;2.00;0.50;;;8.70;99.90;;;8.13;90.29;96891.63;5019575;28;20481;-37
2023/12/25 04:29:16;;;;;;;1.40;0.40;;;8.60;99.90;;;8.10;92.16;96910.16;5012989;28;20061;-37
2023/12/25 04:31:42;;;;;;;0.38;0.38;;;8.60;99.90;;;8.01;90.74;96892.94;5010501;28;20040;-37
2023/12/25 04:34:08;;;;;;;1.88;0.50;;;8.60;99.90;;;8.03;94.67;96905.09;5015450;28;20090;-37
2023/12/25 04:36:33;;;;;;;0.98;0.57;;;8.60;99.90;;;7.86;94.76;96904.84;5013000;28;20037;-37
2023/12/25 04:38:59;;;;;;;0.90;0.60;;;8.50;99.90;;;8.05;92.05;96914.69;4996388;28;21044;-37
2023/12/25 04:41:27;;;;;;;0.70;0.50;;;8.50;99.90;;;8.14;90.51;96906.50;5010908;28;20033;-37
2023/12/25 04:43:53;;;;;;;0.40;0.30;;;8.60;99.90;;;8.09;91.89;96922.41;5013206;28;20104;-37
2023/12/25 04:46:19;;;;;;;0.50;0.35;;;8.60;99.90;;;8.23;88.40;96920.16;5010385;28;20512;-37
2023/12/25 04:48:45;;;;;;;1.33;0.52;;;8.60;99.90;;;8.13;91.68;96903.00;5016637;28;20071;-37
2023/12/25 04:51:11;;;;;;;0.50;0.40;;;8.70;99.90;;;8.08;92.13;96906.72;5018623;28;20104;-39
2023/12/25 04:53:37;;;;;;;0.50;0.40;;;8.70;99.90;;;8.14;88.32;96888.09;5014055;28;21118;-37
2023/12/25 04:56:03;;;;;;;0.77;0.40;;;8.70;99.90;;;8.32;88.02;96894.47;5017425;28;20041;-37
2023/12/25 04:58:29;;;;;;;0.60;0.28;;;8.80;99.90;;;8.26;89.47;96897.34;5017573;28;20041;-36
2023/12/25 05:00:55;;;;;;;1.70;0.55;;;8.80;99.90;;;8.35;86.50;96897.00;5009747;28;20044;-36
2023/12/25 05:03:21;;;;;;;0.75;0.40;;;8.80;99.90;;;8.29;86.96;96889.31;5010059;28;20343;-36
2023/12/25 05:05:48;;;;;;;0.73;0.38;;;8.80;99.90;;;8.21;87.39;96887.81;5016013;28;20656;-37
2023/12/25 05:08:15;;;;;;;0.73;0.47;;;8.80;99.90;;;8.28;88.60;96898.97;5014646;28;20029;-37
2023/12/25 05:10:41;;;;;;;2.15;0.40;;;8.80;99.90;;;8.23;88.14;96886.00;5008962;28;20039;-37
2023/12/25 05:13:07;;;;;;;1.33;0.50;;;8.80;99.90;;;8.12;88.44;96874.19;5016302;28;20486;-37
2023/12/25 05:15:33;;;;;;;1.73;0.57;;;8.70;99.90;;;8.08;89.91;96881.31;5014021;28;20044;-37
2023/12/25 05:17:59;;;;;;;1.13;0.47;;;8.60;99.90;;;8.10;90.37;96883.88;5022947;28;20037;-37
2023/12/25 05:20:24;;;;;;;0.40;0.40;;;8.60;99.90;;;7.96;92.27;96881.72;5014385;28;20037;-36
2023/12/25 05:22:50;;;;;;;1.10;0.50;;;8.60;99.90;;;7.99;90.45;96874.59;5012632;28;20036;-37
2023/12/25 05:25:16;;;;;;;0.40;0.38;;;8.50;99.90;;;8.03;89.04;96872.72;5015284;28;20401;-37
2023/12/25 05:27:41;;;;;;;0.77;0.50;;;8.60;99.90;;;7.99;88.07;96861.47;5014825;28;20115;-37
2023/12/25 05:30:08;;;;;;;0.80;0.40;;;8.50;99.90;;;7.96;89.64;96876.47;5013057;28;20037;-37
2023/12/25 05:32:35;;;;;;;0.88;0.47;;;8.50;99.90;;;8.10;86.95;96860.25;5020045;28;20033;-37
2023/12/25 05:35:02;;;;;;;0.65;0.40;;;8.60;99.90;;;7.98;90.50;96866.78;5018078;28;20152;-37
2023/12/25 05:37:30;;;;;;;0.60;0.30;;;8.60;99.90;;;7.98;89.78;96885.16;5017118;28;20529;-37
2023/12/25 05:39:55;;;;;;;0.70;0.50;;;8.50;99.90;;;7.80;92.38;96853.38;5018308;28;20029;-37
2023/12/25 05:42:22;;;;;;;0.40;0.35;;;8.40;99.90;;;7.92;91.00;96877.50;5017941;28;20036;-37
2023/12/25 05:44:47;;;;;;;0.52;0.45;;;8.50;99.90;;;8.01;91.23;96879.81;5017102;28;20044;-37
2023/12/25 05:47:13;;;;;;;0.65;0.38;;;8.40;99.90;;;7.94;91.21;96884.41;5021283;28;20033;-37
2023/12/25 05:49:39;;;;;;;1.35;0.52;;;8.40;99.90;;;7.84;91.72;96867.25;5016397;28;20216;-38
2023/12/25 05:52:05;;;;;;;0.90;0.40;;;8.50;99.90;;;7.80;94.50;96890.13;5013102;28;20037;-37
2023/12/25 05:54:31;;;;;;;0.40;0.40;;;8.40;99.90;;;7.89;94.78;96890.72;5018011;28;20138;-36
2023/12/25 05:56:58;;;;;;;0.73;0.45;;;8.40;99.90;;;7.92;93.13;96890.63;5018134;28;20112;-37
2023/12/25 05:59:23;;;;;;;0.32;0.22;;;8.40;99.90;;;7.94;93.52;96897.53;5012908;28;20553;-37
2023/12/25 06:01:49;;;;;;;2.15;0.50;;;8.40;99.90;;;7.94;93.69;96896.69;5013650;28;20494;-36
2023/12/25 06:04:15;;;;;;;1.10;0.50;;;8.50;99.90;;;7.94;95.05;96901.94;5015868;28;20029;-37
2023/12/25 06:06:40;;;;;;;1.10;0.50;;;8.50;99.90;;;8.01;92.40;96912.16;5019231;28;20048;-37
2023/12/25 06:09:10;;;;;;;2.97;0.50;;;8.50;99.90;;;8.07;90.83;96905.00;5017080;28;20489;-37
2023/12/25 06:11:35;;;;;;;0.70;0.43;;;8.60;99.90;;;8.14;88.80;96909.97;5014270;28;20037;-37
2023/12/25 06:14:01;;;;;;;0.43;0.43;;;8.60;99.90;;;8.15;90.83;96914.31;5016836;28;20065;-37
2023/12/25 06:16:27;;;;;;;1.50;0.50;;;8.70;99.90;;;8.15;90.84;96908.22;5016572;28;20064;-37
2023/12/25 06:18:53;;;;;;;0.68;0.40;;;8.70;99.90;;;8.20;87.55;96914.16;5018467;28;20029;-38
2023/12/25 06:21:19;;;;;;;0.93;0.43;;;8.70;99.90;;;8.21;90.52;96908.84;5018366;28;20525;-38
2023/12/25 06:23:45;;;;;;;0.77;0.50;;;8.70;99.90;;;8.19;90.19;96907.19;5015505;28;20241;-38
2023/12/25 06:26:10;;;;;;;2.10;0.55;;;8.70;99.90;;;8.18;89.39;96908.97;5020493;28;20371;-37
2023/12/25 06:28:36;;;;;;;0.73;0.45;;;8.70;99.90;;;8.10;90.62;96904.88;5021137;28;20095;-38
2023/12/25 06:31:02;;;;;;;1.02;0.45;;;8.70;99.90;;;8.10;91.92;96910.16;5014439;28;20454;-37
2023/12/25 06:33:27;;;;;;;0.70;0.40;;;8.60;99.90;;;8.07;91.79;96920.75;5027438;28;20060;-37
2023/12/25 06:35:53;;;;;;;2.38;0.60;;;8.60;99.90;;;8.01;93.23;96919.19;5016234;28;20029;-37
2023/12/25 06:38:19;;;;;;;0.60;0.50;;;8.60;99.90;;;7.98;94.50;96933.28;5019034;28;20269;-37
2023/12/25 06:40:44;;;;;;;0.80;0.30;;;8.60;99.90;;;8.03;91.75;96931.34;5015762;28;20626;-38
2023/12/25 06:43:10;;;;;;;0.88;0.60;;;8.60;99.90;;;8.02;92.34;96926.16;5011519;28;20045;-37
2023/12/25 06:45:36;;;;;;;0.82;0.50;;;8.60;99.90;;;7.96;92.79;96923.75;5017445;28;20124;-37
2023/12/25 06:48:02;;;;;;;0.68;0.43;;;8.60;99.90;;;7.97;93.21;96935.97;5017212;28;20025;-36
2023/12/25 06:50:27;;;;;;;0.80;0.50;;;8.50;99.90;;;7.92;96.18;96933.50;5016611;28;20676;-37
2023/12/25 06:52:53;;;;;;;0.85;0.55;;;8.50;99.90;;;7.94;91.41;96930.81;5019663;28;20040;-37
2023/12/25 06:55:18;;;;;;;1.10;0.50;;;8.50;99.90;;;7.94;91.62;96930.81;5017584;28;20037;-37
2023/12/25 06:57:44;;;;;;;0.65;0.47;;;8.50;99.90;;;7.94;90.16;96946.56;5016141;28;20194;-37
2023/12/25 07:00:11;;;;;;;1.15;0.50;;;8.50;99.90;;;7.94;90.69;96938.69;5017411;28;20052;-36
2023/12/25 07:02:38;;;;;;;1.17;0.60;;;8.40;99.90;;;7.91;89.82;96947.50;5012819;28;20037;-37
2023/12/25 07:05:07;;;;;;;0.68;0.43;;;8.50;99.90;;;7.88;92.40;96945.00;5017760;28;20064;-36
2023/12/25 07:07:33;;;;;;;0.85;0.50;;;8.40;99.90;;;7.85;94.45;96939.84;5014275;28;20040;-37
2023/12/25 07:09:58;;;;;;;1.17;0.40;;;8.40;99.90;;;7.79;94.00;96938.31;5012926;28;20026;-37
2023/12/25 07:12:24;;;;;;;0.95;0.50;;;8.40;99.90;;;7.76;93.94;96943.63;5015723;28;20038;-37
2023/12/25 07:14:53;;;;;;;0.60;0.45;;;8.40;99.90;;;7.75;93.77;96952.44;5016238;28;20431;-36
2023/12/25 07:17:18;;;;;;;0.68;0.47;;;8.30;99.90;;;7.72;94.41;96951.69;5003897;28;20371;-36
2023/12/25 07:19:44;;;;;;;1.20;0.45;;;8.30;99.90;;;7.73;95.09;96948.97;5014427;28;20059;-36
2023/12/25 07:22:11;;;;;;;0.40;0.40;;;8.40;99.90;;;7.74;97.80;96961.22;5017976;28;20115;-37
2023/12/25 07:24:37;;;;;;;1.08;0.40;;;8.30;99.90;;;7.59;97.99;96935.44;5017141;28;20497;-36
2023/12/25 07:27:07;;;;;;;0.40;0.40;;;8.30;99.90;;;7.74;98.64;96955.97;5012589;28;20037;-37
2023/12/25 07:29:33;;;;;;;1.15;0.57;;;8.30;99.90;;;7.76;92.50;96948.03;5007492;28;20075;-36
2023/12/25 07:31:59;;;;;;;0.80;0.40;;;8.40;99.90;;;7.77;93.17;96949.75;5013398;28;20033;-37
2023/12/25 07:34:25;;;;;;;1.10;0.60;;;8.40;99.90;;;7.81;91.28;96952.22;5010205;28;20037;-37
2023/12/25 07:36:51;;;;;;;0.70;0.47;;;8.40;99.90;;;7.82;90.81;96961.84;5009058;28;20156;-37
2023/12/25 07:39:16;;;;;;;1.75;0.50;;;8.40;99.90;;;7.87;89.49;96958.19;5001484;28;20037;-37
2023/12/25 07:41:45;;;;;;;1.50;0.60;;;8.40;99.90;;;7.89;89.23;96974.75;5002292;28;20052;-36
2023/12/25 07:44:12;;;;;;;1.00;0.60;;;8.40;99.90;;;7.90;89.40;96985.19;5009578;28;20016;-36
2023/12/25 07:46:38;;;;;;;1.15;0.65;;;8.50;99.90;;;7.95;88.49;96987.66;5006749;28;20263;-36
2023/12/25 07:49:04;;;;;;;1.42;0.55;;;8.50;99.90;;;8.06;85.12;96992.56;5008056;28;20025;-38
2023/12/25 07:51:30;;;;;;;0.55;0.47;;;8.60;99.90;;;8.10;87.09;97000.28;5002249;28;20108;-36
2023/12/25 07:53:55;;;;;;;2.20;0.55;;;8.60;99.90;;;8.13;86.90;96999.31;4998781;28;20029;-36
2023/12/25 07:56:21;;;;;;;0.40;0.40;;;8.70;99.90;;;8.12;86.81;97001.09;5003045;28;20041;-39
2023/12/25 07:58:47;;;;;;;0.88;0.50;;;8.70;99.90;;;8.13;91.28;96996.69;5007862;28;20473;-36
2023/12/25 08:01:13;;;;;;;1.27;0.50;;;8.70;99.90;;;8.13;92.94;96994.06;5001577;28;20171;-37
2023/12/25 08:03:39;;;;;;;1.42;0.50;;;8.70;99.90;;;8.12;92.00;96993.22;5001692;28;20047;-36
2023/12/25 08:06:05;;;;;;;0.82;0.60;;;8.70;99.90;;;8.12;93.28;97003.72;5004353;28;20033;-37
2023/12/25 08:08:31;;;;;;;0.40;0.30;;;8.70;99.90;;;8.15;91.83;97003.63;5008789;28;20489;-36
2023/12/25 08:10:57;;;;;;;0.80;0.63;;;8.70;99.90;;;8.22;87.37;97006.91;5006033;28;20036;-38
2023/12/25 08:13:23;;;;;;;1.00;0.50;;;8.80;99.90;;;8.28;86.75;97009.31;5011206;28;20065;-36
2023/12/25 08:15:48;;;;;;;0.85;0.43;;;8.80;99.90;;;8.34;87.97;97014.34;5016199;28;20246;-36
2023/12/25 08:18:14;;;;;;;0.80;0.60;;;8.90;99.90;;;8.40;88.91;97018.56;5008907;28;20042;-37
2023/12/25 08:20:40;;;;;;;1.20;0.80;;;9.00;99.90;;;8.46;84.71;97028.88;5016153;28;20059;-37
2023/12/25 08:23:06;;;;;;;0.70;0.47;;;9.00;99.90;;;8.47;86.34;97025.34;5006177;28;20049;-37
2023/12/25 08:25:32;;;;;;;1.17;0.50;;;9.00;99.90;;;8.50;86.90;97019.97;5003195;28;20036;-37
2023/12/25 08:27:57;;;;;;;0.30;0.30;;;9.10;99.90;;;8.49;87.69;97010.41;5004575;28;20025;-37
2023/12/25 08:30:23;;;;;;;0.65;0.40;;;9.10;99.90;;;8.59;85.28;97035.41;5002628;28;20434;-38
2023/12/25 08:32:49;;;;;;;2.28;0.50;;;9.20;99.90;;;8.69;83.70;97043.84;5008116;28;20033;-37
2023/12/25 08:35:15;;;;;;;0.90;0.40;;;9.20;99.90;;;8.74;83.91;97039.31;5010664;28;20410;-37
2023/12/25 08:37:40;;;;;;;1.13;0.57;;;9.30;99.90;;;8.80;82.28;97046.09;5016259;28;20292;-37
2023/12/25 08:40:07;;;;;;;0.68;0.40;;;9.40;99.90;;;8.81;84.83;97034.69;5004441;28;20708;-38
2023/12/25 08:42:33;;;;;;;1.38;0.57;;;9.40;99.90;;;8.89;80.68;97050.19;5003870;28;20025;-37
2023/12/25 08:44:59;;;;;;;1.92;0.47;;;9.50;99.90;;;8.91;82.35;97062.34;5012137;28;20036;-37
2023/12/25 08:47:26;;;;;;;0.75;0.50;;;9.50;99.90;;;8.85;83.79;97049.44;5011657;28;20045;-37
2023/12/25 08:49:52;;;;;;;1.52;0.52;;;9.50;99.90;;;9.02;85.67;97069.00;5012918;28;21261;-37
2023/12/25 08:52:18;;;;;;;0.93;0.50;;;9.60;99.90;;;9.09;86.43;97066.09;5010508;28;20037;-37
2023/12/25 08:54:44;;;;;;;0.50;0.50;;;9.60;99.90;;;9.16;85.71;97054.44;5006519;28;20090;-37
2023/12/25 08:57:09;;;;;;;1.15;0.70;;;9.70;99.90;;;9.28;86.27;97054.91;5009701;28;20052;-37
2023/12/25 08:59:36;;;;;;;0.65;0.45;;;9.80;99.90;;;9.32;88.48;97045.97;5016062;28;20036;-37
2023/12/25 09:02:02;;;;;;;0.95;0.47;;;9.80;99.90;;;9.41;87.39;97048.25;5008225;28;20064;-37
2023/12/25 09:04:28;;;;;;;0.90;0.60;;;9.90;99.90;;;9.45;88.29;97046.38;5000806;28;20029;-36
2023/12/25 09:06:53;;;;;;;3.25;0.65;;;10.00;99.90;;;9.48;89.52;97052.38;5010227;28;20040;-36
2023/12/25 09:09:19;;;;;;;0.80;0.60;;;10.00;99.90;;;9.48;88.85;97062.06;5004603;28;20147;-36
2023/12/25 09:11:46;;;;;;;1.45;0.60;;;10.00;99.90;;;9.42;85.63;97057.88;5012259;28;20039;-36
2023/12/25 09:14:12;;;;;;;0.70;0.50;;;10.00;99.90;;;9.45;85.09;97056.91;5011518;28;20038;-36
2023/12/25 09:16:38;;;;;;;0.93;0.40;;;10.00;99.90;;;9.47;87.17;97071.69;5015022;28;20028;-36
2023/12/25 09:19:04;;;;;;;0.57;0.52;;;10.00;99.90;;;9.36;89.51;97042.31;5013855;28;20357;-36
2023/12/25 09:21:36;;;;;;;1.02;0.70;;;10.00;99.90;;;9.43;86.09;97072.75;5015386;28;20486;-36
2023/12/25 09:24:02;;;;;;;1.70;0.68;;;10.00;99.90;;;9.44;87.98;97073.59;5011995;28;20428;-36
2023/12/25 09:26:27;;;;;;;2.28;0.50;;;10.00;99.90;;;9.44;88.97;97076.22;5009111;28;20540;-37
2023/12/25 09:28:53;;;;;;;1.45;0.52;;;10.00;99.90;;;9.42;88.21;97078.06;5011850;28;20506;-37
2023/12/25 09:31:19;;;;;;;0.82;0.50;;;10.00;99.90;;;9.49;90.80;97084.81;5012884;28;20049;-37
2023/12/25 09:33:45;;;;;;;1.50;0.55;;;10.00;99.90;;;9.48;92.06;97085.75;5006907;28;20436;-38
2023/12/25 09:36:11;;;;;;;0.82;0.45;;;10.10;99.90;;;9.57;92.08;97087.19;5009002;28;20053;-37
2023/12/25 09:38:36;;;;;;;1.00;0.47;;;10.20;99.90;;;9.69;91.19;97094.59;5011682;28;20056;-37
2023/12/25 09:41:06;;;;;;;1.83;0.57;;;10.20;99.90;;;9.68;91.52;97077.94;5014673;28;20152;-37
2023/12/25 09:43:33;;;;;;;1.00;0.60;;;10.30;99.90;;;9.71;94.26;97095.41;5011556;28;20060;-37
2023/12/25 09:45:58;;;;;;;0.82;0.50;;;10.30;99.90;;;9.70;94.93;97093.69;5013941;28;20397;-37
2023/12/25 09:48:24;;;;;;;0.70;0.40;;;10.30;99.90;;;9.61;96.74;97084.34;5008152;28;20030;-36
2023/12/25 09:50:50;;;;;;;1.85;0.47;;;10.20;99.90;;;9.58;97.59;97094.16;5009854;28;20087;-36
2023/12/25 09:53:16;;;;;;;0.60;0.30;;;10.20;99.90;;;9.54;97.63;97094.25;5010358;28;20045;-36
2023/12/25 09:55:43;;;;;;;2.40;0.60;;;10.10;99.90;;;9.48;99.23;97083.13;5014661;28;20044;-36
2023/12/25 09:58:10;;;;;;;1.40;0.60;;;10.10;99.90;;;9.42;100.00;97088.59;5015676;28;20568;-37
2023/12/25 10:00:37;;;;;;;1.20;0.55;;;10.00;99.90;;;9.38;100.00;97094.91;5006429;28;21815;-37
2023/12/25 10:03:03;;;;;;;0.82;0.30;;;10.00;99.90;;;9.35;100.00;97099.34;5006250;28;21363;-38
2023/12/25 10:05:29;;;;;;;0.40;0.40;;;9.90;99.90;;;9.30;100.00;97085.50;5009847;28;20060;-38
2023/12/25 10:07:55;;;;;;;0.88;0.57;;;9.90;99.90;;;9.30;100.00;97072.34;4997972;28;20037;-37
2023/12/25 10:10:31;;;;;;;0.60;0.50;;;9.90;99.90;;;9.29;100.00;97070.63;5009725;28;20037;-37
2023/12/25 10:12:58;;;;;;;0.80;0.50;;;9.90;99.90;;;9.22;100.00;97052.50;5004742;28;20631;-37
2023/12/25 10:15:24;;;;;;;0.88;0.52;;;9.90;99.90;;;9.30;100.00;97063.59;5015138;28;20504;-36
2023/12/25 10:18:06;;;;;;;0.82;0.40;;;9.90;99.90;;;9.33;100.00;97056.47;5013298;28;20037;-37
2023/12/25 10:20:32;;;;;;;0.90;0.28;;;9.90;99.90;;;9.26;100.00;97054.97;5011510;28;20120;-38
2023/12/25 10:22:59;;;;;;;2.22;0.47;;;9.80;99.90;;;9.26;100.00;97048.81;5008146;28;20080;-37
2023/12/25 10:25:28;;;;;;;0.95;0.50;;;9.80;99.90;;;9.21;100.00;97048.16;5021652;28;20076;-37